Data for 11/08/2017

Time Sea-Level Adjusted Pressure Absolute Pressure Temperature Relative Humidity Dew Point   
(mb) (inHg) (mb) (inHg) (C) (F) (%) (C) (F)
00:05 1022 30.18 851 25.13 -8.2 17.2 82 -10.8 12.5
00:10 1022 30.18 851 25.13 -8.2 17.3 81 -10.9 12.4
00:15 1022 30.18 851 25.13 -8.2 17.2 83 -10.6 12.8
00:20 1022 30.18 851 25.13 -8 17.6 81 -10.8 12.6
00:25 1022 30.18 851 25.13 -8.3 17.1 79 -11.4 11.5
00:30 1022 30.18 851 25.13 -9.5 14.9 82 -12.1 10.2
00:35 1022 30.18 851 25.13 -10.3 13.5 84 -12.4 9.6
00:40 1022 30.18 851 25.13 -10.4 13.3 86 -12.3 9.8
00:45 1022 30.18 851 25.13 -10.1 13.9 84 -12.2 10
00:50 1022 30.18 851 25.13 -9.9 14.2 82 -12.5 9.6
00:55 1022 30.18 851 25.13 -10.2 13.6 83 -12.5 9.4
01:00 1022 30.18 851 25.13 -10.4 13.3 85 -12.4 9.7
01:05 1022 30.18 851 25.13 -10.3 13.5 85 -12.4 9.7
01:10 1022 30.18 851 25.13 -10.4 13.4 85 -12.4 9.7
01:15 1022 30.18 851 25.13 -10.4 13.3 86 -12.3 9.8
01:20 1022 30.18 851 25.13 -10.3 13.5 87 -12.1 10.2
01:25 1022 30.18 851 25.13 -10.3 13.5 86 -12.2 10.1
01:30 1022 30.18 851 25.13 -10.1 13.8 88 -11.7 10.9
01:35 1021 30.15 851 25.13 -9.9 14.2 88 -11.6 11.1
01:40 1021 30.15 851 25.13 -9.5 14.8 86 -11.5 11.3
01:45 1021 30.15 851 25.13 -9.5 14.9 86 -11.4 11.4
01:50 1021 30.15 851 25.13 -9.2 15.4 85 -11.3 11.6
01:55 1021 30.15 850 25.1 -9 15.9 84 -11.2 11.9
02:00 1021 30.15 850 25.1 -8.9 16 83 -11.3 11.6
02:05 1021 30.15 850 25.1 -9.3 15.3 83 -11.7 10.9
02:10 1021 30.15 850 25.1 -9.6 14.7 86 -11.5 11.2
02:15 1021 30.15 850 25.1 -9.3 15.4 86 -11.2 11.8
02:20 1021 30.15 850 25.1 -8.8 16.2 83 -11.1 12
02:25 1021 30.15 850 25.1 -8.8 16.3 84 -11 12.3
02:30 1021 30.15 850 25.1 -8.5 16.7 85 -10.6 12.8
02:35 1021 30.15 850 25.1 -8.2 17.3 84 -10.4 13.3
02:40 1021 30.15 850 25.1 -7.9 17.7 83 -10.3 13.4
02:45 1021 30.15 850 25.1 -7.8 17.9 82 -10.3 13.4
02:50 1021 30.15 850 25.1 -7.8 18 82 -10.3 13.4
02:55 1021 30.15 850 25.1 -7.9 17.7 82 -10.5 13.2
03:00 1021 30.15 850 25.1 -8.1 17.4 82 -10.6 12.9
03:05 1021 30.15 850 25.1 -8.4 17 83 -10.7 12.8
03:10 1021 30.15 850 25.1 -8.3 17 83 -10.7 12.7
03:15 1021 30.15 850 25.1 -8.3 17.1 84 -10.6 12.9
03:20 1021 30.15 850 25.1 -8.3 17.1 83 -10.7 12.8
03:25 1021 30.15 850 25.1 -8.6 16.6 84 -10.8 12.6
03:30 1021 30.15 850 25.1 -8.6 16.4 85 -10.8 12.6
03:35 1021 30.15 850 25.1 -8.6 16.6 84 -10.7 12.7
03:40 1021 30.15 850 25.1 -8.3 17 83 -10.7 12.8
03:45 1021 30.15 850 25.1 -8.1 17.5 82 -10.6 12.9
03:50 1021 30.15 850 25.1 -7.8 17.9 81 -10.5 13.1
03:55 1021 30.15 850 25.1 -7.7 18.2 80 -10.6 13
04:00 1021 30.15 850 25.1 -7.6 18.3 79 -10.6 12.9
04:05 1021 30.15 850 25.1 -7.5 18.5 78 -10.7 12.7
04:10 1021 30.15 850 25.1 -7.3 18.8 77 -10.7 12.8
04:15 1021 30.15 850 25.1 -7.2 19 78 -10.5 13.1
04:20 1021 30.15 850 25.1 -7.2 19 76 -10.7 12.7
04:25 1021 30.15 850 25.1 -7.4 18.7 78 -10.6 12.9
04:30 1021 30.15 850 25.1 -7.6 18.2 80 -10.6 13
04:35 1021 30.15 850 25.1 -7.7 18.2 81 -10.3 13.4
04:40 1021 30.15 850 25.1 -7.6 18.3 81 -10.4 13.4
04:45 1021 30.15 850 25.1 -7.5 18.5 82 -10.1 13.8
04:50 1021 30.15 850 25.1 -7.1 19.3 80 -9.9 14.1
04:55 1021 30.15 850 25.1 -6.8 19.7 79 -9.9 14.2
05:00 1021 30.15 850 25.1 -6.8 19.7 78 -10 14
05:05 1021 30.15 850 25.1 -6.8 19.7 79 -10 14.1
05:10 1021 30.15 850 25.1 -7 19.3 81 -9.8 14.3
05:15 1021 30.15 850 25.1 -7.1 19.3 81 -9.8 14.3
05:20 1021 30.15 850 25.1 -6.8 19.7 80 -9.7 14.6
05:25 1021 30.15 850 25.1 -6.7 20 80 -9.6 14.6
05:30 1021 30.15 850 25.1 -6.7 19.9 80 -9.6 14.8
05:35 1021 30.15 850 25.1 -6.7 20 80 -9.5 14.8
05:40 1021 30.15 850 25.1 -6.6 20.2 80 -9.4 15
05:45 1021 30.15 850 25.1 -6.7 19.9 81 -9.5 15
05:50 1021 30.15 850 25.1 -7 19.4 82 -9.5 14.9
05:55 1021 30.15 850 25.1 -6.8 19.7 82 -9.4 15
06:00 1021 30.15 850 25.1 -6.6 20 81 -9.4 15.1
06:05 1021 30.15 850 25.1 -6.3 20.6 80 -9.3 15.3
06:10 1021 30.15 850 25.1 -6.1 21 80 -9.1 15.6
06:15 1020 30.12 850 25.1 -6.1 21.1 80 -9 15.9
06:20 1020 30.12 850 25.1 -6 21.2 80 -8.9 15.9
06:25 1020 30.12 850 25.1 -5.9 21.4 80 -8.9 16.1
06:30 1020 30.12 850 25.1 -5.8 21.5 79 -8.9 16
06:35 1021 30.15 850 25.1 -6 21.3 80 -8.9 16.1
06:40 1021 30.15 850 25.1 -5.7 21.7 78 -8.9 16
06:45 1020 30.12 850 25.1 -5.4 22.2 77 -8.8 16.2
06:50 1020 30.12 850 25.1 -5.4 22.2 75 -9.2 15.5
06:55 1020 30.12 849 25.07 -5.2 22.6 76 -8.9 16
07:00 1020 30.12 849 25.07 -5.2 22.6 74 -9.1 15.6
07:05 1021 30.15 850 25.1 -4.9 23.2 74 -8.8 16.1
07:10 1021 30.15 850 25.1 -4.8 23.3 75 -8.5 16.6
07:15 1021 30.15 850 25.1 -4.8 23.4 74 -8.7 16.3
07:20 1021 30.15 850 25.1 -4.8 23.3 73 -9 15.8
07:25 1021 30.15 850 25.1 -4.7 23.6 72 -9 15.8
07:30 1021 30.15 850 25.1 -4.5 24 73 -8.7 16.4
07:35 1021 30.15 850 25.1 -4.3 24.2 75 -8.2 17.3
07:40 1021 30.15 850 25.1 -4.5 23.8 76 -8.2 17.3
07:45 1021 30.15 850 25.1 -4.5 23.9 75 -8.3 17
07:50 1021 30.15 850 25.1 -4.4 24.1 74 -8.4 17
07:55 1021 30.15 850 25.1 -4.2 24.5 74 -8.2 17.3
08:00 1021 30.15 850 25.1 -4 24.8 70 -8.7 16.3
08:05 1021 30.15 850 25.1 -3.7 25.3 71 -8.2 17.2
08:10 1021 30.15 850 25.1 -3.7 25.4 71 -8.2 17.3
08:15 1021 30.15 850 25.1 -3.9 25 73 -8.1 17.5
08:20 1021 30.15 850 25.1 -3.8 25.1 69 -8.7 16.3
08:25 1021 30.15 851 25.13 -3.5 25.7 66 -8.9 16
08:30 1022 30.18 851 25.13 -3 26.5 66 -8.5 16.8
08:35 1022 30.18 851 25.13 -2.6 27.3 65 -8.3 17.1
08:40 1022 30.18 851 25.13 -2.5 27.4 63 -8.6 16.5
08:45 1022 30.18 851 25.13 -2.5 27.4 63 -8.6 16.5
08:50 1022 30.18 851 25.13 -2.4 27.7 62 -8.7 16.3
08:55 1022 30.18 851 25.13 -2.5 27.6 64 -8.4 16.8
09:00 1022 30.18 851 25.13 -2.5 27.4 66 -8 17.6
09:05 1022 30.18 851 25.13 -2.4 27.6 66 -7.9 17.8
09:10 1022 30.18 851 25.13 -2.5 27.5 67 -7.8 18
09:15 1022 30.18 851 25.13 -2.6 27.3 64 -8.5 16.7
09:20 1021 30.15 851 25.13 -2.7 27.2 63 -8.7 16.4
09:25 1021 30.15 851 25.13 -2.8 27 64 -8.6 16.5
09:30 1021 30.15 850 25.1 -2.4 27.7 61 -8.8 16.1
09:35 1021 30.15 850 25.1 -2.6 27.4 63 -8.7 16.3
09:40 1021 30.15 850 25.1 -2.5 27.5 61 -9.1 15.7
09:45 1021 30.15 850 25.1 -2.4 27.6 62 -8.7 16.3
09:50 1021 30.15 851 25.13 -2.1 28.3 61 -8.5 16.7
09:55 1021 30.15 851 25.13 -1.8 28.8 60 -8.6 16.5
10:00 1021 30.15 851 25.13 -1.6 29.1 58 -8.7 16.3
10:05 1022 30.18 851 25.13 -1.9 28.6 59 -8.8 16.1
10:10 1021 30.15 851 25.13 -1.9 28.6 60 -8.7 16.3
10:15 1021 30.15 851 25.13 -1.6 29 62 -7.9 17.7
10:20 1021 30.15 851 25.13 -1.4 29.4 61 -7.9 17.7
10:25 1021 30.15 850 25.1 -1.1 30 59 -8 17.5
10:30 1021 30.15 850 25.1 -1.5 29.3 64 -7.6 18.4
10:35 1021 30.15 850 25.1 -1.8 28.8 60 -8.5 16.7
10:40 1021 30.15 850 25.1 -2 28.5 62 -8.4 16.9
10:45 1021 30.15 850 25.1 -1.8 28.7 59 -8.7 16.3
10:50 1021 30.15 851 25.13 -1.7 28.9 59 -8.8 16.2
10:55 1021 30.15 851 25.13 -1.5 29.4 58 -8.8 16.2
11:00 1021 30.15 851 25.13 -1.4 29.5 58 -8.7 16.3
11:05 1021 30.15 851 25.13 -1 30.3 55 -8.8 16.1
11:10 1021 30.15 850 25.1 -1 30.2 55 -9 15.9
11:15 1021 30.15 850 25.1 -0.9 30.5 54 -9.1 15.6
11:20 1021 30.15 850 25.1 -0.4 31.3 52 -9 15.8
11:25 1021 30.15 850 25.1 -0.2 31.7 52 -9 15.8
11:30 1021 30.15 850 25.1 -0.2 31.7 51 -9.1 15.5
11:35 1021 30.15 850 25.1 -0.3 31.5 54 -8.6 16.5
11:40 1021 30.15 850 25.1 0.1 32.2 53 -8.2 17.2
11:45 1021 30.15 850 25.1 0.1 32.2 54 -8.3 17.1
11:50 1021 30.15 850 25.1 -0.2 31.6 56 -8 17.5
11:55 1021 30.15 850 25.1 0 32 53 -8.5 16.7
12:00 1021 30.15 850 25.1 0.2 32.3 51 -8.7 16.3
12:05 1021 30.15 850 25.1 -0.1 31.8 54 -8.2 17.2
12:10 1021 30.15 850 25.1 -0.3 31.4 57 -7.8 17.9
12:15 1020 30.12 849 25.07 -0.6 30.9 56 -8.4 16.8
12:20 1020 30.12 849 25.07 -1.1 29.9 57 -8.6 16.4
12:25 1020 30.12 849 25.07 -1 30.1 58 -8.3 17.1
12:30 1020 30.12 849 25.07 -0.5 31.1 58 -7.9 17.8
12:35 1020 30.12 850 25.1 0 32.1 54 -8.1 17.4
12:40 1020 30.12 850 25.1 0.1 32.2 56 -7.6 18.3
12:45 1020 30.12 849 25.07 -0.1 31.8 55 -8.1 17.5
12:50 1020 30.12 849 25.07 -0 31.9 58 -7.5 18.6
12:55 1020 30.12 849 25.07 0.1 32.2 56 -7.6 18.4
13:00 1020 30.12 849 25.07 0.2 32.4 55 -7.7 18.1
13:05 1020 30.12 849 25.07 0.1 32.2 57 -7.5 18.6
13:10 1020 30.12 849 25.07 0.4 32.8 54 -7.8 18
13:15 1020 30.12 849 25.07 0.6 33.1 54 -7.6 18.3
13:20 1020 30.12 849 25.07 0.7 33.3 56 -7.1 19.2
13:25 1020 30.12 849 25.07 0.1 32.2 58 -7.1 19.2
13:30 1020 30.12 849 25.07 -0.4 31.2 58 -7.6 18.3
13:35 1020 30.12 849 25.07 -0.2 31.7 58 -7.5 18.5
13:40 1020 30.12 849 25.07 0.2 32.4 58 -7.1 19.2
13:45 1020 30.12 849 25.07 0.4 32.6 58 -7 19.5
13:50 1020 30.12 849 25.07 0.4 32.7 58 -7 19.5
13:55 1020 30.12 849 25.07 0.7 33.3 56 -7.1 19.3
14:00 1020 30.12 849 25.07 0.7 33.3 55 -7.3 18.9
14:05 1020 30.12 849 25.07 0.6 33 57 -6.9 19.6
14:10 1020 30.12 849 25.07 0.2 32.4 64 -5.8 21.5
14:15 1020 30.12 849 25.07 -0.4 31.3 67 -5.8 21.5
14:20 1020 30.12 849 25.07 -0.9 30.5 67 -6.2 20.9
14:25 1020 30.12 849 25.07 -1.1 30 69 -6.1 21.1
14:30 1020 30.12 849 25.07 -1.8 28.9 72 -6.2 20.9
14:35 1020 30.12 849 25.07 -2 28.5 72 -6.4 20.4
14:40 1020 30.12 849 25.07 -1.6 29.1 71 -6.2 20.9
14:45 1020 30.12 849 25.07 -1.5 29.3 69 -6.6 20.2
14:50 1020 30.12 849 25.07 -1.7 28.9 72 -6.2 20.8
14:55 1020 30.12 849 25.07 -1.8 28.7 71 -6.5 20.4
15:00 1020 30.12 849 25.07 -1.7 29 70 -6.4 20.5
15:05 1020 30.12 849 25.07 -1.5 29.3 69 -6.4 20.5
15:10 1020 30.12 849 25.07 -1.3 29.6 70 -6.1 20.9
15:15 1020 30.12 849 25.07 -1.3 29.7 71 -6 21.2
15:20 1020 30.12 849 25.07 -1.1 29.9 70 -5.9 21.3
15:25 1020 30.12 849 25.07 -1 30.3 69 -6 21.2
15:30 1020 30.12 849 25.07 -1.1 30.1 70 -6 21.3
15:35 1020 30.12 849 25.07 -1.5 29.3 72 -5.9 21.4
15:40 1020 30.12 849 25.07 -1.6 29.2 70 -6.3 20.7
15:45 1020 30.12 849 25.07 -1.9 28.5 68 -7.1 19.2
15:50 1020 30.12 849 25.07 -1.9 28.6 71 -6.4 20.4
15:55 1020 30.12 849 25.07 -1.6 29.1 68 -6.8 19.8
16:00 1020 30.12 849 25.07 -1.4 29.5 67 -6.8 19.8
16:05 1020 30.12 849 25.07 -1.3 29.6 68 -6.5 20.3
16:10 1020 30.12 849 25.07 -1.4 29.5 70 -6.2 20.9
16:15 1020 30.12 849 25.07 -1.4 29.4 68 -6.7 20
16:20 1020 30.12 849 25.07 -1.5 29.3 68 -6.6 20.1
16:25 1020 30.12 849 25.07 -1.5 29.3 69 -6.5 20.3
16:30 1020 30.12 849 25.07 -1.4 29.4 70 -6.2 20.8
16:35 1020 30.12 849 25.07 -1.5 29.3 71 -6 21.2
16:40 1020 30.12 849 25.07 -1.7 29 73 -5.9 21.4
16:45 1020 30.12 849 25.07 -2 28.5 73 -6.1 21
16:50 1020 30.12 849 25.07 -2 28.4 74 -6 21.3
16:55 1020 30.12 849 25.07 -2 28.4 75 -5.9 21.3
17:00 1020 30.12 849 25.07 -2 28.4 75 -5.8 21.5
17:05 1020 30.12 849 25.07 -2.1 28.2 74 -6.1 21
17:10 1020 30.12 849 25.07 -2.3 27.9 75 -6.1 21
17:15 1020 30.12 849 25.07 -2.3 27.8 76 -5.9 21.3
17:20 1020 30.12 849 25.07 -2.3 27.8 77 -5.8 21.5
17:25 1020 30.12 849 25.07 -2.4 27.7 76 -6 21.2
17:30 1020 30.12 849 25.07 -2.4 27.7 78 -5.8 21.6
17:35 1020 30.12 849 25.07 -2.4 27.7 79 -5.6 21.9
17:40 1020 30.12 849 25.07 -2.5 27.6 77 -5.9 21.4
17:45 1020 30.12 849 25.07 -2.6 27.3 78 -5.9 21.4
17:50 1020 30.12 849 25.07 -2.6 27.3 77 -6.1 20.9
17:55 1020 30.12 849 25.07 -2.6 27.4 76 -6.2 20.8
18:00 1020 30.12 849 25.07 -2.5 27.5 76 -6.1 21
18:05 1020 30.12 849 25.07 -2.5 27.6 77 -5.9 21.3
18:10 1020 30.12 849 25.07 -2.5 27.5 77 -6 21.3
18:15 1020 30.12 849 25.07 -2.5 27.6 77 -6 21.3
18:20 1020 30.12 849 25.07 -2.4 27.6 76 -6.1 21
18:25 1020 30.12 849 25.07 -2.4 27.7 76 -6.1 20.9
18:30 1020 30.12 849 25.07 -2.4 27.7 74 -6.3 20.6
18:35 1020 30.12 849 25.07 -2.4 27.7 74 -6.4 20.5
18:40 1020 30.12 849 25.07 -2.3 27.8 71 -6.9 19.5
18:45 1020 30.12 849 25.07 -2 28.3 70 -6.8 19.8
18:50 1020 30.12 849 25.07 -2 28.4 71 -6.5 20.3
18:55 1020 30.12 849 25.07 -1.8 28.8 69 -6.7 19.9
19:00 1020 30.12 849 25.07 -1.5 29.3 70 -6.3 20.6
19:05 1020 30.12 849 25.07 -1.4 29.5 70 -6.1 20.9
19:10 1020 30.12 849 25.07 -1.1 30 69 -6 21.1
19:15 1020 30.12 849 25.07 -1.2 29.8 73 -5.5 22.1
19:20 1020 30.12 849 25.07 -1.6 29.2 74 -5.6 21.9
19:25 1020 30.12 849 25.07 -1.9 28.5 74 -6 21.2
19:30 1020 30.12 850 25.1 -2.1 28.2 76 -5.8 21.5
19:35 1020 30.12 850 25.1 -2.2 28 77 -5.7 21.7
19:40 1020 30.12 850 25.1 -2.3 27.9 76 -6 21.2
19:45 1020 30.12 850 25.1 -2 28.3 72 -6.4 20.4
19:50 1020 30.12 850 25.1 -1.9 28.6 70 -6.7 20
19:55 1020 30.12 850 25.1 -1.8 28.7 68 -6.9 19.6
20:00 1020 30.12 849 25.07 -1.8 28.7 68 -7 19.3
20:05 1020 30.12 849 25.07 -1.9 28.6 68 -7.1 19.3
20:10 1020 30.12 849 25.07 -2.1 28.3 69 -7.1 19.3
20:15 1020 30.12 849 25.07 -2.3 27.9 69 -7.2 19
20:20 1020 30.12 849 25.07 -2.4 27.8 70 -7.1 19.2
20:25 1020 30.12 849 25.07 -2.4 27.6 70 -7.1 19.2
20:30 1020 30.12 849 25.07 -2.5 27.6 71 -7.1 19.2
20:35 1020 30.12 849 25.07 -2.5 27.5 71 -7.1 19.3
20:40 1020 30.12 849 25.07 -2.5 27.6 70 -7.1 19.2
20:45 1020 30.12 849 25.07 -2.5 27.6 70 -7.2 19.1
20:50 1020 30.12 849 25.07 -2.4 27.6 70 -7.1 19.2
20:55 1020 30.12 849 25.07 -2.4 27.7 69 -7.3 18.9
21:00 1020 30.12 849 25.07 -2.3 27.8 70 -7.2 19.1
21:05 1020 30.12 849 25.07 -2.4 27.8 70 -7.2 19.1
21:10 1020 30.12 849 25.07 -2.4 27.7 70 -7.2 19.1
21:15 1020 30.12 849 25.07 -2.4 27.7 70 -7.2 19.1
21:20 1020 30.12 849 25.07 -2.4 27.7 70 -7.2 19.1
21:25 1020 30.12 849 25.07 -2.4 27.6 70 -7.1 19.2
21:30 1020 30.12 849 25.07 -2.5 27.6 70 -7.1 19.2
21:35 1020 30.12 849 25.07 -2.5 27.5 71 -7.1 19.2
21:40 1020 30.12 849 25.07 -2.5 27.4 71 -7.1 19.3
21:45 1020 30.12 849 25.07 -2.6 27.3 72 -7 19.4
21:50 1020 30.12 849 25.07 -2.7 27.2 72 -7 19.4
21:55 1020 30.12 849 25.07 -2.8 27 73 -6.9 19.5
22:00 1020 30.12 849 25.07 -2.9 26.8 73 -7.1 19.3
22:05 1020 30.12 849 25.07 -3 26.7 73 -7.1 19.3
22:10 1020 30.12 849 25.07 -3.1 26.4 74 -7.1 19.2
22:15 1020 30.12 849 25.07 -3.2 26.2 75 -7.1 19.2
22:20 1020 30.12 849 25.07 -3.3 26 75 -7.2 19
22:25 1020 30.12 849 25.07 -3.4 25.9 75 -7.2 19.1
22:30 1020 30.12 849 25.07 -3.4 25.8 75 -7.2 19
22:35 1020 30.12 849 25.07 -3.4 26 74 -7.3 18.8
22:40 1020 30.12 849 25.07 -3.3 26 74 -7.3 18.8
22:45 1020 30.12 849 25.07 -3.3 26 75 -7.2 19
22:50 1020 30.12 849 25.07 -3.4 25.8 75 -7.3 18.8
22:55 1020 30.12 849 25.07 -3.5 25.7 75 -7.3 18.8
23:00 1020 30.12 849 25.07 -3.5 25.7 75 -7.3 18.8
23:05 1020 30.12 849 25.07 -3.5 25.6 75 -7.3 18.8
23:10 1020 30.12 849 25.07 -3.7 25.4 76 -7.4 18.8
23:15 1019 30.09 849 25.07 -3.8 25.2 76 -7.4 18.7
23:20 1019 30.09 849 25.07 -4 24.8 77 -7.5 18.5
23:25 1019 30.09 849 25.07 -4.1 24.6 78 -7.5 18.6
23:30 1019 30.09 848 25.04 -4.2 24.4 78 -7.6 18.4
23:35 1019 30.09 848 25.04 -4.3 24.3 78 -7.6 18.3
23:40 1019 30.09 848 25.04 -4.3 24.3 78 -7.7 18.2
23:45 1019 30.09 848 25.04 -4.2 24.4 77 -7.7 18.2
23:50 1019 30.09 848 25.04 -4.1 24.5 76 -7.7 18.1
23:55 1019 30.09 848 25.04 -4.2 24.5 77 -7.6 18.2
24:00 1019 30.09 848 25.04 -4.2 24.4 76 -7.9 17.8